sensor_id;sensor_type;location;lat;lon;timestamp;pressure;altitude;pressure_sealevel;temperature;humidity
55373;BME280;41249;47.838;16.490;2022-07-23T00:01:31;99043.75;;;21.25;68.29
55373;BME280;41249;47.838;16.490;2022-07-23T00:03:58;99036.13;;;21.22;68.80
55373;BME280;41249;47.838;16.490;2022-07-23T00:06:25;99040.69;;;21.16;69.51
55373;BME280;41249;47.838;16.490;2022-07-23T00:08:52;99037.59;;;21.29;68.55
55373;BME280;41249;47.838;16.490;2022-07-23T00:11:19;99043.56;;;21.31;68.69
55373;BME280;41249;47.838;16.490;2022-07-23T00:13:45;99043.72;;;21.42;67.81
55373;BME280;41249;47.838;16.490;2022-07-23T00:16:12;99032.44;;;21.50;67.22
55373;BME280;41249;47.838;16.490;2022-07-23T00:18:39;99029.94;;;21.43;68.28
55373;BME280;41249;47.838;16.490;2022-07-23T00:21:06;99034.69;;;21.14;70.46
55373;BME280;41249;47.838;16.490;2022-07-23T00:23:33;99028.59;;;21.24;70.70
55373;BME280;41249;47.838;16.490;2022-07-23T00:26:00;99029.28;;;21.14;71.38
55373;BME280;41249;47.838;16.490;2022-07-23T00:28:26;99034.94;;;21.34;70.16
55373;BME280;41249;47.838;16.490;2022-07-23T00:30:53;99029.06;;;21.16;70.83
55373;BME280;41249;47.838;16.490;2022-07-23T00:33:20;99025.03;;;21.18;71.05
55373;BME280;41249;47.838;16.490;2022-07-23T00:35:47;99025.84;;;21.19;70.79
55373;BME280;41249;47.838;16.490;2022-07-23T00:38:13;99024.09;;;21.07;71.14
55373;BME280;41249;47.838;16.490;2022-07-23T00:40:40;99022.59;;;21.00;71.92
55373;BME280;41249;47.838;16.490;2022-07-23T00:43:07;99023.75;;;21.04;71.10
55373;BME280;41249;47.838;16.490;2022-07-23T00:45:34;99028.13;;;20.88;72.65
55373;BME280;41249;47.838;16.490;2022-07-23T00:48:01;99029.88;;;20.99;71.68
55373;BME280;41249;47.838;16.490;2022-07-23T00:50:28;99033.22;;;21.06;71.23
55373;BME280;41249;47.838;16.490;2022-07-23T00:52:56;99034.09;;;20.90;72.55
55373;BME280;41249;47.838;16.490;2022-07-23T00:55:23;99032.03;;;20.97;71.59
55373;BME280;41249;47.838;16.490;2022-07-23T00:57:49;99023.84;;;20.92;72.25
55373;BME280;41249;47.838;16.490;2022-07-23T01:00:16;99026.19;;;21.05;71.80
55373;BME280;41249;47.838;16.490;2022-07-23T01:02:44;99027.59;;;21.08;71.36
55373;BME280;41249;47.838;16.490;2022-07-23T01:05:14;99022.94;;;21.03;72.15
55373;BME280;41249;47.838;16.490;2022-07-23T01:07:42;99023.28;;;20.90;72.36
55373;BME280;41249;47.838;16.490;2022-07-23T01:10:09;99026.00;;;20.90;73.38
55373;BME280;41249;47.838;16.490;2022-07-23T01:12:56;99018.44;;;20.92;73.45
55373;BME280;41249;47.838;16.490;2022-07-23T01:15:23;99027.06;;;20.89;72.52
55373;BME280;41249;47.838;16.490;2022-07-23T01:17:50;99030.66;;;20.78;73.80
55373;BME280;41249;47.838;16.490;2022-07-23T01:20:18;99025.28;;;20.78;74.06
55373;BME280;41249;47.838;16.490;2022-07-23T01:22:45;99026.59;;;20.75;74.25
55373;BME280;41249;47.838;16.490;2022-07-23T01:25:12;99015.94;;;20.69;75.31
55373;BME280;41249;47.838;16.490;2022-07-23T01:27:43;99020.22;;;20.65;75.94
55373;BME280;41249;47.838;16.490;2022-07-23T01:30:11;99016.50;;;20.71;75.00
55373;BME280;41249;47.838;16.490;2022-07-23T01:32:39;99019.84;;;20.95;72.15
55373;BME280;41249;47.838;16.490;2022-07-23T01:35:06;99016.19;;;21.06;70.61
55373;BME280;41249;47.838;16.490;2022-07-23T01:37:34;99025.13;;;21.28;69.99
55373;BME280;41249;47.838;16.490;2022-07-23T01:40:03;99025.19;;;21.11;73.34
55373;BME280;41249;47.838;16.490;2022-07-23T01:42:31;99024.47;;;21.38;73.20
55373;BME280;41249;47.838;16.490;2022-07-23T01:45:03;99029.63;;;21.61;73.37
55373;BME280;41249;47.838;16.490;2022-07-23T01:47:30;99030.31;;;21.74;75.07
55373;BME280;41249;47.838;16.490;2022-07-23T01:49:57;99046.09;;;21.87;75.08
55373;BME280;41249;47.838;16.490;2022-07-23T01:52:42;99071.69;;;22.01;73.87
55373;BME280;41249;47.838;16.490;2022-07-23T01:55:09;99080.09;;;22.27;70.70
55373;BME280;41249;47.838;16.490;2022-07-23T01:57:46;99061.00;;;22.43;69.71
55373;BME280;41249;47.838;16.490;2022-07-23T02:00:13;99044.59;;;22.23;70.88
55373;BME280;41249;47.838;16.490;2022-07-23T02:02:44;99043.53;;;22.24;71.77
55373;BME280;41249;47.838;16.490;2022-07-23T02:05:11;99050.25;;;22.16;72.16
55373;BME280;41249;47.838;16.490;2022-07-23T02:07:38;99049.38;;;22.11;73.68
55373;BME280;41249;47.838;16.490;2022-07-23T02:10:05;99042.69;;;22.18;73.33
55373;BME280;41249;47.838;16.490;2022-07-23T02:12:32;99024.53;;;22.19;74.25
55373;BME280;41249;47.838;16.490;2022-07-23T02:14:58;99030.94;;;22.40;74.04
55373;BME280;41249;47.838;16.490;2022-07-23T02:17:25;99031.53;;;22.47;73.34
55373;BME280;41249;47.838;16.490;2022-07-23T02:19:52;99031.00;;;22.50;73.44
55373;BME280;41249;47.838;16.490;2022-07-23T02:22:18;99023.75;;;22.56;73.48
55373;BME280;41249;47.838;16.490;2022-07-23T02:24:48;99023.75;;;22.56;73.06
55373;BME280;41249;47.838;16.490;2022-07-23T02:27:15;99014.88;;;22.65;72.66
55373;BME280;41249;47.838;16.490;2022-07-23T02:29:42;99010.75;;;22.58;73.48
55373;BME280;41249;47.838;16.490;2022-07-23T02:32:09;99021.34;;;22.64;73.72
55373;BME280;41249;47.838;16.490;2022-07-23T02:34:36;99019.81;;;22.73;72.47
55373;BME280;41249;47.838;16.490;2022-07-23T02:37:03;99014.44;;;22.79;72.39
55373;BME280;41249;47.838;16.490;2022-07-23T02:39:30;99006.25;;;22.68;72.34
55373;BME280;41249;47.838;16.490;2022-07-23T02:41:58;99004.97;;;22.81;71.64
55373;BME280;41249;47.838;16.490;2022-07-23T02:44:25;99005.22;;;22.74;73.02
55373;BME280;41249;47.838;16.490;2022-07-23T02:46:53;98993.81;;;22.35;75.97
55373;BME280;41249;47.838;16.490;2022-07-23T02:49:19;98995.22;;;21.84;80.54
55373;BME280;41249;47.838;16.490;2022-07-23T02:51:48;98994.94;;;21.53;83.22
55373;BME280;41249;47.838;16.490;2022-07-23T02:54:16;99002.47;;;21.51;84.58
55373;BME280;41249;47.838;16.490;2022-07-23T02:56:43;99000.72;;;21.40;86.31
55373;BME280;41249;47.838;16.490;2022-07-23T02:59:10;99003.97;;;21.42;86.54
55373;BME280;41249;47.838;16.490;2022-07-23T03:01:38;98997.19;;;21.39;87.80
55373;BME280;41249;47.838;16.490;2022-07-23T03:04:06;98993.59;;;21.12;92.64
55373;BME280;41249;47.838;16.490;2022-07-23T03:06:33;98988.81;;;21.19;91.84
55373;BME280;41249;47.838;16.490;2022-07-23T03:09:00;98992.31;;;20.98;95.29
55373;BME280;41249;47.838;16.490;2022-07-23T03:11:27;98989.53;;;20.93;96.20
55373;BME280;41249;47.838;16.490;2022-07-23T03:13:54;98992.59;;;20.96;96.44
55373;BME280;41249;47.838;16.490;2022-07-23T03:16:20;98987.28;;;21.06;95.47
55373;BME280;41249;47.838;16.490;2022-07-23T03:18:49;98996.44;;;21.00;95.87
55373;BME280;41249;47.838;16.490;2022-07-23T03:21:16;98992.38;;;20.81;98.15
55373;BME280;41249;47.838;16.490;2022-07-23T03:23:42;99000.94;;;20.95;96.36
55373;BME280;41249;47.838;16.490;2022-07-23T03:26:09;98999.53;;;20.92;96.34
55373;BME280;41249;47.838;16.490;2022-07-23T03:28:36;99006.91;;;20.97;97.40
55373;BME280;41249;47.838;16.490;2022-07-23T03:31:04;99006.44;;;20.83;99.77
55373;BME280;41249;47.838;16.490;2022-07-23T03:33:31;99013.16;;;20.47;100.00
55373;BME280;41249;47.838;16.490;2022-07-23T03:35:58;99004.00;;;20.48;100.00
55373;BME280;41249;47.838;16.490;2022-07-23T03:38:28;99006.13;;;20.46;100.00
55373;BME280;41249;47.838;16.490;2022-07-23T03:40:55;99006.44;;;20.49;100.00
55373;BME280;41249;47.838;16.490;2022-07-23T03:43:22;99001.69;;;20.56;100.00
55373;BME280;41249;47.838;16.490;2022-07-23T03:45:51;99008.25;;;20.61;100.00
55373;BME280;41249;47.838;16.490;2022-07-23T03:48:18;99000.09;;;20.72;100.00
55373;BME280;41249;47.838;16.490;2022-07-23T03:50:45;99002.22;;;20.37;100.00
55373;BME280;41249;47.838;16.490;2022-07-23T03:53:12;99001.81;;;20.28;100.00
55373;BME280;41249;47.838;16.490;2022-07-23T03:55:39;99022.19;;;20.36;100.00
55373;BME280;41249;47.838;16.490;2022-07-23T03:58:06;99018.81;;;20.45;100.00
55373;BME280;41249;47.838;16.490;2022-07-23T04:00:32;99024.72;;;20.42;100.00
55373;BME280;41249;47.838;16.490;2022-07-23T04:02:59;99019.16;;;20.32;100.00
55373;BME280;41249;47.838;16.490;2022-07-23T04:05:27;99018.81;;;20.45;100.00
55373;BME280;41249;47.838;16.490;2022-07-23T04:08:03;99016.03;;;20.57;100.00
55373;BME280;41249;47.838;16.490;2022-07-23T04:10:30;99020.88;;;20.72;100.00
55373;BME280;41249;47.838;16.490;2022-07-23T04:12:57;99023.13;;;20.97;100.00
55373;BME280;41249;47.838;16.490;2022-07-23T04:15:24;99023.94;;;21.19;97.34
55373;BME280;41249;47.838;16.490;2022-07-23T04:17:51;99030.25;;;21.47;96.15
55373;BME280;41249;47.838;16.490;2022-07-23T04:20:18;99034.50;;;21.64;93.14
55373;BME280;41249;47.838;16.490;2022-07-23T04:22:54;99037.28;;;21.70;94.08
55373;BME280;41249;47.838;16.490;2022-07-23T04:25:22;99048.28;;;21.63;94.43
55373;BME280;41249;47.838;16.490;2022-07-23T04:27:49;99045.56;;;21.85;94.78
55373;BME280;41249;47.838;16.490;2022-07-23T04:30:16;99069.88;;;22.07;92.59
55373;BME280;41249;47.838;16.490;2022-07-23T04:32:43;99065.28;;;22.07;92.45
55373;BME280;41249;47.838;16.490;2022-07-23T04:35:19;99064.16;;;22.03;93.19
55373;BME280;41249;47.838;16.490;2022-07-23T04:37:46;99068.94;;;21.96;93.54
55373;BME280;41249;47.838;16.490;2022-07-23T04:40:15;99072.19;;;22.20;91.59
55373;BME280;41249;47.838;16.490;2022-07-23T04:42:41;99069.66;;;22.40;89.92
55373;BME280;41249;47.838;16.490;2022-07-23T04:45:08;99061.66;;;22.56;88.44
55373;BME280;41249;47.838;16.490;2022-07-23T04:47:39;99051.59;;;22.83;86.35
55373;BME280;41249;47.838;16.490;2022-07-23T04:50:06;99057.78;;;22.79;85.56
55373;BME280;41249;47.838;16.490;2022-07-23T04:52:35;99060.53;;;22.84;85.65
55373;BME280;41249;47.838;16.490;2022-07-23T04:55:02;99057.97;;;22.67;88.98
55373;BME280;41249;47.838;16.490;2022-07-23T04:57:29;99058.19;;;22.65;88.63
55373;BME280;41249;47.838;16.490;2022-07-23T04:59:56;99053.28;;;22.89;87.76
55373;BME280;41249;47.838;16.490;2022-07-23T05:02:23;99051.69;;;22.66;88.11
55373;BME280;41249;47.838;16.490;2022-07-23T05:04:50;99052.78;;;22.65;86.84
55373;BME280;41249;47.838;16.490;2022-07-23T05:07:17;99052.31;;;22.73;87.60
55373;BME280;41249;47.838;16.490;2022-07-23T05:09:43;99052.88;;;22.70;90.28
55373;BME280;41249;47.838;16.490;2022-07-23T05:12:10;99049.44;;;22.85;88.19
55373;BME280;41249;47.838;16.490;2022-07-23T05:14:39;99058.41;;;22.91;83.62
55373;BME280;41249;47.838;16.490;2022-07-23T05:17:06;99060.44;;;23.11;87.08
55373;BME280;41249;47.838;16.490;2022-07-23T05:19:35;99059.28;;;23.01;88.36
55373;BME280;41249;47.838;16.490;2022-07-23T05:22:02;99056.34;;;23.08;89.20
55373;BME280;41249;47.838;16.490;2022-07-23T05:24:28;99059.34;;;23.12;88.21
55373;BME280;41249;47.838;16.490;2022-07-23T05:26:55;99057.97;;;23.04;88.87
55373;BME280;41249;47.838;16.490;2022-07-23T05:29:25;99058.53;;;23.16;89.30
55373;BME280;41249;47.838;16.490;2022-07-23T05:31:52;99059.56;;;23.00;88.95
55373;BME280;41249;47.838;16.490;2022-07-23T05:34:19;99066.00;;;22.94;91.74
55373;BME280;41249;47.838;16.490;2022-07-23T05:36:47;99057.47;;;23.17;90.36
55373;BME280;41249;47.838;16.490;2022-07-23T05:39:15;99057.91;;;23.41;85.62
55373;BME280;41249;47.838;16.490;2022-07-23T05:41:42;99058.25;;;23.75;83.44
55373;BME280;41249;47.838;16.490;2022-07-23T05:44:09;99064.31;;;23.93;80.52
55373;BME280;41249;47.838;16.490;2022-07-23T05:46:39;99067.63;;;24.05;76.96
55373;BME280;41249;47.838;16.490;2022-07-23T05:49:08;99074.69;;;24.06;77.60
55373;BME280;41249;47.838;16.490;2022-07-23T05:52:07;99074.72;;;24.26;83.34
55373;BME280;41249;47.838;16.490;2022-07-23T05:55:00;99082.56;;;24.28;83.71
55373;BME280;41249;47.838;16.490;2022-07-23T05:57:27;99075.81;;;24.61;75.10
55373;BME280;41249;47.838;16.490;2022-07-23T05:59:54;99074.13;;;25.11;74.96
55373;BME280;41249;47.838;16.490;2022-07-23T06:02:21;99070.78;;;25.39;73.33
55373;BME280;41249;47.838;16.490;2022-07-23T06:04:47;99053.41;;;25.25;59.68
55373;BME280;41249;47.838;16.490;2022-07-23T06:07:28;99052.03;;;25.38;61.06
55373;BME280;41249;47.838;16.490;2022-07-23T06:09:54;99056.13;;;25.30;56.42
55373;BME280;41249;47.838;16.490;2022-07-23T06:12:21;99055.09;;;25.11;54.38
55373;BME280;41249;47.838;16.490;2022-07-23T06:14:48;99055.09;;;25.16;57.02
55373;BME280;41249;47.838;16.490;2022-07-23T06:17:16;99056.41;;;25.29;54.43
55373;BME280;41249;47.838;16.490;2022-07-23T06:19:43;99062.22;;;24.81;55.10
55373;BME280;41249;47.838;16.490;2022-07-23T06:22:10;99054.00;;;25.12;54.77
55373;BME280;41249;47.838;16.490;2022-07-23T06:24:37;99058.81;;;25.40;53.47
55373;BME280;41249;47.838;16.490;2022-07-23T06:27:04;99076.28;;;25.24;52.88
55373;BME280;41249;47.838;16.490;2022-07-23T06:29:30;99063.97;;;25.42;52.64
55373;BME280;41249;47.838;16.490;2022-07-23T06:31:57;99064.69;;;25.63;51.52
55373;BME280;41249;47.838;16.490;2022-07-23T06:34:24;99057.81;;;25.11;52.19
55373;BME280;41249;47.838;16.490;2022-07-23T06:36:51;99060.63;;;25.60;51.90
55373;BME280;41249;47.838;16.490;2022-07-23T06:39:18;99058.69;;;25.66;51.76
55373;BME280;41249;47.838;16.490;2022-07-23T06:41:49;99056.97;;;25.85;51.44
55373;BME280;41249;47.838;16.490;2022-07-23T06:44:18;99047.56;;;26.07;51.21
55373;BME280;41249;47.838;16.490;2022-07-23T06:46:47;99047.69;;;25.91;51.03
55373;BME280;41249;47.838;16.490;2022-07-23T06:49:14;99050.75;;;26.29;50.83
55373;BME280;41249;47.838;16.490;2022-07-23T06:51:41;99047.13;;;26.68;49.85
55373;BME280;41249;47.838;16.490;2022-07-23T06:54:08;99058.53;;;26.41;51.33
55373;BME280;41249;47.838;16.490;2022-07-23T06:56:34;99058.78;;;26.73;50.67
55373;BME280;41249;47.838;16.490;2022-07-23T06:59:01;99061.84;;;26.67;50.38
55373;BME280;41249;47.838;16.490;2022-07-23T07:01:29;99058.75;;;27.31;49.62
55373;BME280;41249;47.838;16.490;2022-07-23T07:03:56;99052.28;;;26.98;49.59
55373;BME280;41249;47.838;16.490;2022-07-23T07:06:22;99049.72;;;27.07;49.18
55373;BME280;41249;47.838;16.490;2022-07-23T07:08:50;99060.78;;;26.63;48.27
55373;BME280;41249;47.838;16.490;2022-07-23T07:11:17;99046.78;;;27.27;47.12
55373;BME280;41249;47.838;16.490;2022-07-23T07:13:44;99036.97;;;27.26;46.80
55373;BME280;41249;47.838;16.490;2022-07-23T07:16:10;99035.94;;;27.46;46.03
55373;BME280;41249;47.838;16.490;2022-07-23T07:18:37;99021.66;;;27.92;45.22
55373;BME280;41249;47.838;16.490;2022-07-23T07:21:04;99046.88;;;27.65;43.30
55373;BME280;41249;47.838;16.490;2022-07-23T07:23:31;99054.25;;;27.64;43.15
55373;BME280;41249;47.838;16.490;2022-07-23T07:25:57;99030.50;;;27.84;42.08
55373;BME280;41249;47.838;16.490;2022-07-23T07:28:24;99037.81;;;28.07;41.73
55373;BME280;41249;47.838;16.490;2022-07-23T07:30:51;99034.66;;;27.81;41.88
55373;BME280;41249;47.838;16.490;2022-07-23T07:33:18;99027.06;;;28.30;41.45
55373;BME280;41249;47.838;16.490;2022-07-23T07:35:45;99040.38;;;27.80;41.67
55373;BME280;41249;47.838;16.490;2022-07-23T07:38:12;99046.84;;;27.89;41.29
55373;BME280;41249;47.838;16.490;2022-07-23T07:40:38;99034.50;;;28.10;41.81
55373;BME280;41249;47.838;16.490;2022-07-23T07:43:05;99039.38;;;27.95;41.05
55373;BME280;41249;47.838;16.490;2022-07-23T07:45:32;99045.06;;;27.98;39.42
55373;BME280;41249;47.838;16.490;2022-07-23T07:47:59;99032.44;;;28.02;38.46
55373;BME280;41249;47.838;16.490;2022-07-23T07:50:26;99041.72;;;28.01;37.88
55373;BME280;41249;47.838;16.490;2022-07-23T07:52:52;99046.63;;;28.04;37.22
55373;BME280;41249;47.838;16.490;2022-07-23T07:55:19;99043.72;;;28.14;36.90
55373;BME280;41249;47.838;16.490;2022-07-23T07:57:46;99048.38;;;28.65;36.99
55373;BME280;41249;47.838;16.490;2022-07-23T08:00:33;99040.94;;;28.52;35.45
55373;BME280;41249;47.838;16.490;2022-07-23T08:03:00;99047.94;;;28.58;35.67
55373;BME280;41249;47.838;16.490;2022-07-23T08:05:30;99051.84;;;28.85;35.65
55373;BME280;41249;47.838;16.490;2022-07-23T08:07:58;99043.09;;;29.15;34.76
55373;BME280;41249;47.838;16.490;2022-07-23T08:10:26;99045.50;;;29.03;33.96
55373;BME280;41249;47.838;16.490;2022-07-23T08:12:55;99029.31;;;29.20;33.33
55373;BME280;41249;47.838;16.490;2022-07-23T08:15:27;99036.94;;;28.77;32.72
55373;BME280;41249;47.838;16.490;2022-07-23T08:17:55;99044.50;;;28.34;33.53
55373;BME280;41249;47.838;16.490;2022-07-23T08:20:25;99040.09;;;28.38;33.55
55373;BME280;41249;47.838;16.490;2022-07-23T08:22:56;99040.97;;;29.12;32.75
55373;BME280;41249;47.838;16.490;2022-07-23T08:25:26;99054.25;;;29.19;32.89
55373;BME280;41249;47.838;16.490;2022-07-23T08:27:53;99042.47;;;29.32;32.07
55373;BME280;41249;47.838;16.490;2022-07-23T08:30:20;99039.41;;;29.61;31.49
55373;BME280;41249;47.838;16.490;2022-07-23T08:32:49;99051.78;;;29.04;32.48
55373;BME280;41249;47.838;16.490;2022-07-23T08:35:16;99049.75;;;29.37;32.04
55373;BME280;41249;47.838;16.490;2022-07-23T08:37:43;99049.59;;;29.19;32.43
55373;BME280;41249;47.838;16.490;2022-07-23T08:40:11;99047.22;;;29.40;32.00
55373;BME280;41249;47.838;16.490;2022-07-23T08:42:37;99037.97;;;29.77;31.58
55373;BME280;41249;47.838;16.490;2022-07-23T08:45:07;99030.63;;;29.87;30.64
55373;BME280;41249;47.838;16.490;2022-07-23T08:47:36;99039.03;;;29.90;30.78
55373;BME280;41249;47.838;16.490;2022-07-23T08:50:04;99035.78;;;30.02;30.77
55373;BME280;41249;47.838;16.490;2022-07-23T08:52:33;99056.59;;;30.25;30.76
55373;BME280;41249;47.838;16.490;2022-07-23T08:55:01;99041.75;;;30.04;30.79
55373;BME280;41249;47.838;16.490;2022-07-23T08:57:28;99044.59;;;29.21;32.09
55373;BME280;41249;47.838;16.490;2022-07-23T08:59:54;99051.91;;;29.90;31.46
55373;BME280;41249;47.838;16.490;2022-07-23T09:02:21;99038.41;;;30.07;31.66
55373;BME280;41249;47.838;16.490;2022-07-23T09:04:48;99032.25;;;30.01;31.44
55373;BME280;41249;47.838;16.490;2022-07-23T09:07:14;99029.31;;;30.20;31.54
55373;BME280;41249;47.838;16.490;2022-07-23T09:09:41;99040.31;;;29.70;31.57
55373;BME280;41249;47.838;16.490;2022-07-23T09:12:10;99045.25;;;29.96;31.40
55373;BME280;41249;47.838;16.490;2022-07-23T09:14:44;99048.44;;;30.12;31.52
55373;BME280;41249;47.838;16.490;2022-07-23T09:17:16;99035.94;;;30.42;31.22
55373;BME280;41249;47.838;16.490;2022-07-23T09:19:44;99042.03;;;30.16;31.35
55373;BME280;41249;47.838;16.490;2022-07-23T09:22:25;99035.47;;;30.48;30.46
55373;BME280;41249;47.838;16.490;2022-07-23T09:25:05;99036.44;;;30.21;31.48
55373;BME280;41249;47.838;16.490;2022-07-23T09:27:49;99036.44;;;30.21;30.54
55373;BME280;41249;47.838;16.490;2022-07-23T09:30:28;99035.78;;;30.02;31.27
55373;BME280;41249;47.838;16.490;2022-07-23T09:33:12;99032.91;;;30.74;30.20
55373;BME280;41249;47.838;16.490;2022-07-23T09:35:51;99029.50;;;30.24;30.92
55373;BME280;41249;47.838;16.490;2022-07-23T09:38:21;99036.28;;;30.49;30.27
55373;BME280;41249;47.838;16.490;2022-07-23T09:41:08;99027.47;;;30.52;29.83
55373;BME280;41249;47.838;16.490;2022-07-23T09:43:35;99031.81;;;30.53;30.58
55373;BME280;41249;47.838;16.490;2022-07-23T09:46:23;99028.31;;;30.61;29.17
55373;BME280;41249;47.838;16.490;2022-07-23T09:48:52;99017.97;;;30.58;29.77
55373;BME280;41249;47.838;16.490;2022-07-23T09:51:20;99021.63;;;30.84;28.46
55373;BME280;41249;47.838;16.490;2022-07-23T09:53:57;99030.69;;;29.59;30.35
55373;BME280;41249;47.838;16.490;2022-07-23T09:56:27;99017.47;;;30.33;30.31
55373;BME280;41249;47.838;16.490;2022-07-23T09:58:54;99017.16;;;30.88;28.96
55373;BME280;41249;47.838;16.490;2022-07-23T10:01:31;99019.50;;;30.73;28.74
55373;BME280;41249;47.838;16.490;2022-07-23T10:04:00;99015.34;;;30.53;29.30
55373;BME280;41249;47.838;16.490;2022-07-23T10:06:47;99006.25;;;31.06;28.52
55373;BME280;41249;47.838;16.490;2022-07-23T10:09:39;99010.94;;;30.43;29.83
55373;BME280;41249;47.838;16.490;2022-07-23T10:12:26;98999.00;;;31.10;28.89
55373;BME280;41249;47.838;16.490;2022-07-23T10:15:12;98996.38;;;30.65;28.00
55373;BME280;41249;47.838;16.490;2022-07-23T10:17:39;98995.19;;;30.88;27.47
55373;BME280;41249;47.838;16.490;2022-07-23T10:20:06;98977.66;;;32.16;26.63
55373;BME280;41249;47.838;16.490;2022-07-23T10:22:35;98987.47;;;30.59;27.26
55373;BME280;41249;47.838;16.490;2022-07-23T10:31:01;98982.31;;;31.55;26.26
55373;BME280;41249;47.838;16.490;2022-07-23T10:36:09;98976.19;;;31.92;26.03
55373;BME280;41249;47.838;16.490;2022-07-23T10:38:43;98974.88;;;32.07;25.39
55373;BME280;41249;47.838;16.490;2022-07-23T10:41:15;98958.41;;;31.98;25.57
55373;BME280;41249;47.838;16.490;2022-07-23T10:44:32;98972.50;;;31.88;26.01
55373;BME280;41249;47.838;16.490;2022-07-23T10:47:04;98971.94;;;32.21;25.77
55373;BME280;41249;47.838;16.490;2022-07-23T10:49:40;98954.00;;;33.08;25.63
55373;BME280;41249;47.838;16.490;2022-07-23T10:54:48;98948.00;;;32.77;25.30
55373;BME280;41249;47.838;16.490;2022-07-23T10:57:23;98941.16;;;32.53;24.97
55373;BME280;41249;47.838;16.490;2022-07-23T11:02:46;98943.66;;;31.34;26.31
55373;BME280;41249;47.838;16.490;2022-07-23T11:05:15;98944.38;;;31.00;26.49
55373;BME280;41249;47.838;16.490;2022-07-23T11:10:37;98932.88;;;31.37;26.11
55373;BME280;41249;47.838;16.490;2022-07-23T11:18:53;98923.22;;;32.47;24.98
55373;BME280;41249;47.838;16.490;2022-07-23T11:34:36;98935.47;;;30.85;26.01
55373;BME280;41249;47.838;16.490;2022-07-23T11:37:08;98936.16;;;31.00;26.24
55373;BME280;41249;47.838;16.490;2022-07-23T11:39:35;98941.53;;;30.12;27.00
55373;BME280;41249;47.838;16.490;2022-07-23T11:42:05;98939.97;;;30.19;27.26
55373;BME280;41249;47.838;16.490;2022-07-23T11:44:37;98947.75;;;30.26;27.38
55373;BME280;41249;47.838;16.490;2022-07-23T11:47:09;98941.16;;;30.04;27.43
55373;BME280;41249;47.838;16.490;2022-07-23T11:49:37;98952.25;;;29.27;28.54
55373;BME280;41249;47.838;16.490;2022-07-23T11:52:12;98957.59;;;29.32;29.28
55373;BME280;41249;47.838;16.490;2022-07-23T11:55:03;98964.63;;;28.97;29.59
55373;BME280;41249;47.838;16.490;2022-07-23T11:57:33;98958.06;;;28.98;30.07
55373;BME280;41249;47.838;16.490;2022-07-23T12:00:15;98966.38;;;28.93;30.16
55373;BME280;41249;47.838;16.490;2022-07-23T12:02:44;98987.31;;;28.70;30.82
55373;BME280;41249;47.838;16.490;2022-07-23T12:05:25;98979.81;;;28.76;31.19
55373;BME280;41249;47.838;16.490;2022-07-23T12:07:54;99003.66;;;28.42;33.22
55373;BME280;41249;47.838;16.490;2022-07-23T12:10:27;99016.75;;;27.32;40.28
55373;BME280;41249;47.838;16.490;2022-07-23T12:13:00;99022.72;;;26.18;45.07
55373;BME280;41249;47.838;16.490;2022-07-23T12:15:40;99024.16;;;25.56;50.98
55373;BME280;41249;47.838;16.490;2022-07-23T12:18:11;99030.06;;;25.04;49.66
55373;BME280;41249;47.838;16.490;2022-07-23T12:20:40;99019.72;;;25.06;53.35
55373;BME280;41249;47.838;16.490;2022-07-23T12:23:09;99041.31;;;23.33;93.25
55373;BME280;41249;47.838;16.490;2022-07-23T12:25:39;99054.81;;;22.80;100.00
55373;BME280;41249;47.838;16.490;2022-07-23T12:28:07;99056.53;;;22.91;100.00
55373;BME280;41249;47.838;16.490;2022-07-23T12:30:45;99056.19;;;23.25;93.38
55373;BME280;41249;47.838;16.490;2022-07-23T12:33:15;99058.22;;;23.55;85.21
55373;BME280;41249;47.838;16.490;2022-07-23T12:35:48;99061.25;;;23.69;87.00
55373;BME280;41249;47.838;16.490;2022-07-23T12:38:17;99067.69;;;23.47;87.88
55373;BME280;41249;47.838;16.490;2022-07-23T12:45:56;99092.38;;;23.51;73.88
55373;BME280;41249;47.838;16.490;2022-07-23T12:48:29;99090.16;;;23.38;72.96
55373;BME280;41249;47.838;16.490;2022-07-23T12:51:04;99088.25;;;23.33;73.31
55373;BME280;41249;47.838;16.490;2022-07-23T12:53:42;99092.72;;;23.17;74.66
55373;BME280;41249;47.838;16.490;2022-07-23T12:56:15;99091.94;;;23.22;71.78
55373;BME280;41249;47.838;16.490;2022-07-23T12:59:27;99092.72;;;23.17;74.55
55373;BME280;41249;47.838;16.490;2022-07-23T13:01:55;99093.38;;;22.92;77.84
55373;BME280;41249;47.838;16.490;2022-07-23T13:04:25;99104.47;;;22.59;82.06
55373;BME280;41249;47.838;16.490;2022-07-23T13:06:58;99100.72;;;22.60;86.43
55373;BME280;41249;47.838;16.490;2022-07-23T13:09:29;99105.69;;;22.41;88.53
55373;BME280;41249;47.838;16.490;2022-07-23T13:11:59;99103.53;;;22.43;85.44
55373;BME280;41249;47.838;16.490;2022-07-23T13:14:28;99105.59;;;22.31;86.92
55373;BME280;41249;47.838;16.490;2022-07-23T13:16:55;99115.34;;;22.32;86.96
55373;BME280;41249;47.838;16.490;2022-07-23T13:19:25;99118.19;;;22.47;86.04
55373;BME280;41249;47.838;16.490;2022-07-23T13:21:53;99125.09;;;22.65;88.85
55373;BME280;41249;47.838;16.490;2022-07-23T13:24:20;99124.97;;;22.49;93.55
55373;BME280;41249;47.838;16.490;2022-07-23T13:26:47;99118.41;;;22.67;92.27
55373;BME280;41249;47.838;16.490;2022-07-23T13:29:16;99108.34;;;23.00;92.84
55373;BME280;41249;47.838;16.490;2022-07-23T13:31:46;99083.44;;;23.50;88.21
55373;BME280;41249;47.838;16.490;2022-07-23T13:34:13;99082.00;;;24.26;77.80
55373;BME280;41249;47.838;16.490;2022-07-23T13:36:40;99081.75;;;25.14;71.07
55373;BME280;41249;47.838;16.490;2022-07-23T13:39:06;99080.81;;;25.49;69.74
55373;BME280;41249;47.838;16.490;2022-07-23T13:41:37;99075.78;;;25.87;64.54
55373;BME280;41249;47.838;16.490;2022-07-23T13:44:04;99062.78;;;26.23;58.93